sensor_id;sensor_type;location;lat;lon;timestamp;temperature;humidity
25192;DHT22;13143;50.924;5.320;2023-01-23T00:01:48;2.60;99.90
25192;DHT22;13143;50.924;5.320;2023-01-23T00:04:15;2.70;99.90
25192;DHT22;13143;50.924;5.320;2023-01-23T00:06:42;2.60;99.90
25192;DHT22;13143;50.924;5.320;2023-01-23T00:09:07;2.60;99.90
25192;DHT22;13143;50.924;5.320;2023-01-23T00:11:33;2.60;99.90
25192;DHT22;13143;50.924;5.320;2023-01-23T00:14:00;2.60;99.90
25192;DHT22;13143;50.924;5.320;2023-01-23T00:16:28;2.60;99.90
25192;DHT22;13143;50.924;5.320;2023-01-23T00:18:54;2.70;99.90
25192;DHT22;13143;50.924;5.320;2023-01-23T00:21:22;2.70;99.90
25192;DHT22;13143;50.924;5.320;2023-01-23T00:23:51;2.70;99.90
25192;DHT22;13143;50.924;5.320;2023-01-23T00:26:23;2.70;99.90
25192;DHT22;13143;50.924;5.320;2023-01-23T00:28:50;2.70;99.90
25192;DHT22;13143;50.924;5.320;2023-01-23T00:31:19;2.70;99.90
25192;DHT22;13143;50.924;5.320;2023-01-23T00:33:45;2.70;99.90
25192;DHT22;13143;50.924;5.320;2023-01-23T00:36:12;2.70;99.90
25192;DHT22;13143;50.924;5.320;2023-01-23T00:38:38;2.70;99.90
25192;DHT22;13143;50.924;5.320;2023-01-23T00:41:04;2.70;99.90
25192;DHT22;13143;50.924;5.320;2023-01-23T00:43:30;2.70;99.90
25192;DHT22;13143;50.924;5.320;2023-01-23T00:45:56;2.70;99.90
25192;DHT22;13143;50.924;5.320;2023-01-23T00:48:22;2.70;99.90
25192;DHT22;13143;50.924;5.320;2023-01-23T00:50:48;2.70;99.90
25192;DHT22;13143;50.924;5.320;2023-01-23T00:53:14;2.70;99.90
25192;DHT22;13143;50.924;5.320;2023-01-23T00:55:40;2.70;99.90
25192;DHT22;13143;50.924;5.320;2023-01-23T00:58:07;2.70;99.90
25192;DHT22;13143;50.924;5.320;2023-01-23T01:00:33;2.70;99.90
25192;DHT22;13143;50.924;5.320;2023-01-23T01:02:59;2.70;99.90
25192;DHT22;13143;50.924;5.320;2023-01-23T01:05:25;2.70;99.90
25192;DHT22;13143;50.924;5.320;2023-01-23T01:07:51;2.70;99.90
25192;DHT22;13143;50.924;5.320;2023-01-23T01:10:16;2.70;99.90
25192;DHT22;13143;50.924;5.320;2023-01-23T01:12:42;2.60;99.90
25192;DHT22;13143;50.924;5.320;2023-01-23T01:15:08;2.70;99.90
25192;DHT22;13143;50.924;5.320;2023-01-23T01:17:35;2.60;99.90
25192;DHT22;13143;50.924;5.320;2023-01-23T01:20:02;2.60;99.90
25192;DHT22;13143;50.924;5.320;2023-01-23T01:22:28;2.70;99.90
25192;DHT22;13143;50.924;5.320;2023-01-23T01:24:54;2.60;99.90
25192;DHT22;13143;50.924;5.320;2023-01-23T01:27:22;2.70;99.90
25192;DHT22;13143;50.924;5.320;2023-01-23T01:29:47;2.70;99.90
25192;DHT22;13143;50.924;5.320;2023-01-23T01:32:13;2.70;99.90
25192;DHT22;13143;50.924;5.320;2023-01-23T01:34:39;2.70;99.90
25192;DHT22;13143;50.924;5.320;2023-01-23T01:37:05;2.70;99.90
25192;DHT22;13143;50.924;5.320;2023-01-23T01:39:30;2.70;99.90
25192;DHT22;13143;50.924;5.320;2023-01-23T01:41:56;2.70;99.90
25192;DHT22;13143;50.924;5.320;2023-01-23T01:44:22;2.70;99.90
25192;DHT22;13143;50.924;5.320;2023-01-23T01:46:49;2.60;99.90
25192;DHT22;13143;50.924;5.320;2023-01-23T01:49:33;2.60;99.90
25192;DHT22;13143;50.924;5.320;2023-01-23T01:52:05;2.60;99.90
25192;DHT22;13143;50.924;5.320;2023-01-23T01:54:41;2.70;99.90
25192;DHT22;13143;50.924;5.320;2023-01-23T01:57:31;2.70;99.90
25192;DHT22;13143;50.924;5.320;2023-01-23T02:00:05;2.60;99.90
25192;DHT22;13143;50.924;5.320;2023-01-23T02:02:36;2.60;99.90
25192;DHT22;13143;50.924;5.320;2023-01-23T02:05:07;2.70;99.90
25192;DHT22;13143;50.924;5.320;2023-01-23T02:07:45;2.60;99.90
25192;DHT22;13143;50.924;5.320;2023-01-23T02:10:12;2.60;99.90
25192;DHT22;13143;50.924;5.320;2023-01-23T02:12:38;2.70;99.90
25192;DHT22;13143;50.924;5.320;2023-01-23T02:15:06;2.60;99.90
25192;DHT22;13143;50.924;5.320;2023-01-23T02:17:33;2.60;99.90
25192;DHT22;13143;50.924;5.320;2023-01-23T02:20:14;2.60;99.90
25192;DHT22;13143;50.924;5.320;2023-01-23T02:23:07;2.60;99.90
25192;DHT22;13143;50.924;5.320;2023-01-23T02:28:11;2.60;99.90
25192;DHT22;13143;50.924;5.320;2023-01-23T02:30:38;2.60;99.90
25192;DHT22;13143;50.924;5.320;2023-01-23T02:35:45;2.60;99.90
25192;DHT22;13143;50.924;5.320;2023-01-23T02:38:10;2.60;99.90
25192;DHT22;13143;50.924;5.320;2023-01-23T02:40:39;2.60;99.90
25192;DHT22;13143;50.924;5.320;2023-01-23T02:43:07;2.60;99.90
25192;DHT22;13143;50.924;5.320;2023-01-23T02:45:34;2.60;99.90
25192;DHT22;13143;50.924;5.320;2023-01-23T02:47:59;2.60;99.90
25192;DHT22;13143;50.924;5.320;2023-01-23T02:50:26;2.60;99.90
25192;DHT22;13143;50.924;5.320;2023-01-23T02:52:52;2.60;99.90
25192;DHT22;13143;50.924;5.320;2023-01-23T02:55:20;2.60;99.90
25192;DHT22;13143;50.924;5.320;2023-01-23T02:57:46;2.60;99.90
25192;DHT22;13143;50.924;5.320;2023-01-23T03:00:13;2.60;99.90
25192;DHT22;13143;50.924;5.320;2023-01-23T03:02:49;2.60;99.90
25192;DHT22;13143;50.924;5.320;2023-01-23T03:05:16;2.60;99.90
25192;DHT22;13143;50.924;5.320;2023-01-23T03:07:42;2.60;99.90
25192;DHT22;13143;50.924;5.320;2023-01-23T03:10:09;2.70;99.90
25192;DHT22;13143;50.924;5.320;2023-01-23T03:12:35;2.70;99.90
25192;DHT22;13143;50.924;5.320;2023-01-23T03:15:07;2.70;99.90
25192;DHT22;13143;50.924;5.320;2023-01-23T03:17:33;2.70;99.90
25192;DHT22;13143;50.924;5.320;2023-01-23T03:19:58;2.70;99.90
25192;DHT22;13143;50.924;5.320;2023-01-23T03:22:24;2.70;99.90
25192;DHT22;13143;50.924;5.320;2023-01-23T03:24:51;2.70;99.90
25192;DHT22;13143;50.924;5.320;2023-01-23T03:27:16;2.70;99.90
25192;DHT22;13143;50.924;5.320;2023-01-23T03:29:42;2.70;99.90
25192;DHT22;13143;50.924;5.320;2023-01-23T03:32:26;2.70;99.90
25192;DHT22;13143;50.924;5.320;2023-01-23T03:34:53;2.60;99.90
25192;DHT22;13143;50.924;5.320;2023-01-23T03:37:19;2.70;99.90
25192;DHT22;13143;50.924;5.320;2023-01-23T03:39:45;2.70;99.90
25192;DHT22;13143;50.924;5.320;2023-01-23T03:42:32;2.70;99.90
25192;DHT22;13143;50.924;5.320;2023-01-23T03:44:58;2.70;99.90
25192;DHT22;13143;50.924;5.320;2023-01-23T03:47:24;2.70;99.90
25192;DHT22;13143;50.924;5.320;2023-01-23T03:49:51;2.70;99.90
25192;DHT22;13143;50.924;5.320;2023-01-23T03:52:16;2.70;99.90
25192;DHT22;13143;50.924;5.320;2023-01-23T03:54:42;2.70;99.90
25192;DHT22;13143;50.924;5.320;2023-01-23T03:57:08;2.70;99.90
25192;DHT22;13143;50.924;5.320;2023-01-23T03:59:34;2.70;99.90
25192;DHT22;13143;50.924;5.320;2023-01-23T04:02:00;2.70;99.90
25192;DHT22;13143;50.924;5.320;2023-01-23T04:04:30;2.70;99.90
25192;DHT22;13143;50.924;5.320;2023-01-23T04:06:55;2.70;99.90
25192;DHT22;13143;50.924;5.320;2023-01-23T04:09:21;2.70;99.90
25192;DHT22;13143;50.924;5.320;2023-01-23T04:11:53;2.70;99.90
25192;DHT22;13143;50.924;5.320;2023-01-23T04:14:19;2.70;99.90
25192;DHT22;13143;50.924;5.320;2023-01-23T04:16:45;2.70;99.90
25192;DHT22;13143;50.924;5.320;2023-01-23T04:19:10;2.70;99.90
25192;DHT22;13143;50.924;5.320;2023-01-23T04:21:36;2.70;99.90
25192;DHT22;13143;50.924;5.320;2023-01-23T04:24:01;2.70;99.90
25192;DHT22;13143;50.924;5.320;2023-01-23T04:26:27;2.70;99.90
25192;DHT22;13143;50.924;5.320;2023-01-23T04:28:53;2.70;99.90
25192;DHT22;13143;50.924;5.320;2023-01-23T04:31:18;2.70;99.90
25192;DHT22;13143;50.924;5.320;2023-01-23T04:33:44;2.70;99.90
25192;DHT22;13143;50.924;5.320;2023-01-23T04:36:10;2.70;99.90
25192;DHT22;13143;50.924;5.320;2023-01-23T04:38:36;2.70;99.90
25192;DHT22;13143;50.924;5.320;2023-01-23T04:41:02;2.70;99.90
25192;DHT22;13143;50.924;5.320;2023-01-23T04:43:28;2.70;99.90
25192;DHT22;13143;50.924;5.320;2023-01-23T04:45:54;2.70;99.90
25192;DHT22;13143;50.924;5.320;2023-01-23T04:48:21;2.70;99.90
25192;DHT22;13143;50.924;5.320;2023-01-23T04:50:48;2.70;99.90
25192;DHT22;13143;50.924;5.320;2023-01-23T04:53:13;2.70;99.90
25192;DHT22;13143;50.924;5.320;2023-01-23T04:55:39;2.70;99.90
25192;DHT22;13143;50.924;5.320;2023-01-23T04:58:05;2.70;99.90
25192;DHT22;13143;50.924;5.320;2023-01-23T05:00:31;2.70;99.90
25192;DHT22;13143;50.924;5.320;2023-01-23T05:02:57;2.70;99.90
25192;DHT22;13143;50.924;5.320;2023-01-23T05:05:23;2.70;99.90
25192;DHT22;13143;50.924;5.320;2023-01-23T05:07:50;2.70;99.90
25192;DHT22;13143;50.924;5.320;2023-01-23T05:10:16;2.70;99.90
25192;DHT22;13143;50.924;5.320;2023-01-23T05:12:41;2.80;99.90
25192;DHT22;13143;50.924;5.320;2023-01-23T05:15:08;2.80;99.90
25192;DHT22;13143;50.924;5.320;2023-01-23T05:17:34;2.70;99.90
25192;DHT22;13143;50.924;5.320;2023-01-23T05:19:59;2.70;99.90
25192;DHT22;13143;50.924;5.320;2023-01-23T05:22:25;2.70;99.90
25192;DHT22;13143;50.924;5.320;2023-01-23T05:24:51;2.70;99.90
25192;DHT22;13143;50.924;5.320;2023-01-23T05:27:16;2.70;99.90
25192;DHT22;13143;50.924;5.320;2023-01-23T05:29:42;2.70;99.90
25192;DHT22;13143;50.924;5.320;2023-01-23T05:32:08;2.70;99.90
25192;DHT22;13143;50.924;5.320;2023-01-23T05:34:34;2.70;99.90
25192;DHT22;13143;50.924;5.320;2023-01-23T05:36:59;2.70;99.90
25192;DHT22;13143;50.924;5.320;2023-01-23T05:39:25;2.70;99.90
25192;DHT22;13143;50.924;5.320;2023-01-23T05:41:50;2.70;99.90
25192;DHT22;13143;50.924;5.320;2023-01-23T05:44:16;2.70;99.90
25192;DHT22;13143;50.924;5.320;2023-01-23T05:46:42;2.80;99.90
25192;DHT22;13143;50.924;5.320;2023-01-23T05:49:07;2.80;99.90
25192;DHT22;13143;50.924;5.320;2023-01-23T05:51:33;2.70;99.90
25192;DHT22;13143;50.924;5.320;2023-01-23T05:54:00;2.80;99.90
25192;DHT22;13143;50.924;5.320;2023-01-23T05:56:26;2.80;99.90
25192;DHT22;13143;50.924;5.320;2023-01-23T05:58:52;2.80;99.90
25192;DHT22;13143;50.924;5.320;2023-01-23T06:01:18;2.80;99.90
25192;DHT22;13143;50.924;5.320;2023-01-23T06:03:44;2.80;99.90
25192;DHT22;13143;50.924;5.320;2023-01-23T06:06:11;2.80;99.90
25192;DHT22;13143;50.924;5.320;2023-01-23T06:08:36;2.80;99.90
25192;DHT22;13143;50.924;5.320;2023-01-23T06:11:02;2.80;99.90
25192;DHT22;13143;50.924;5.320;2023-01-23T06:13:28;2.80;99.90
25192;DHT22;13143;50.924;5.320;2023-01-23T06:15:54;2.80;99.90
25192;DHT22;13143;50.924;5.320;2023-01-23T06:18:20;2.80;99.90
25192;DHT22;13143;50.924;5.320;2023-01-23T06:20:46;2.80;99.90
25192;DHT22;13143;50.924;5.320;2023-01-23T06:23:12;2.80;99.90
25192;DHT22;13143;50.924;5.320;2023-01-23T06:25:38;2.80;99.90
25192;DHT22;13143;50.924;5.320;2023-01-23T06:28:04;2.80;99.90
25192;DHT22;13143;50.924;5.320;2023-01-23T06:30:30;2.80;99.90
25192;DHT22;13143;50.924;5.320;2023-01-23T06:32:56;2.80;99.90
25192;DHT22;13143;50.924;5.320;2023-01-23T06:35:21;2.80;99.90
25192;DHT22;13143;50.924;5.320;2023-01-23T06:37:47;2.80;99.90
25192;DHT22;13143;50.924;5.320;2023-01-23T06:40:13;2.90;99.90
25192;DHT22;13143;50.924;5.320;2023-01-23T06:42:40;2.90;99.90
25192;DHT22;13143;50.924;5.320;2023-01-23T06:45:07;2.90;99.90
25192;DHT22;13143;50.924;5.320;2023-01-23T06:47:33;2.90;99.90
25192;DHT22;13143;50.924;5.320;2023-01-23T06:49:59;2.90;99.90
25192;DHT22;13143;50.924;5.320;2023-01-23T06:52:26;2.90;99.90
25192;DHT22;13143;50.924;5.320;2023-01-23T06:54:52;2.90;99.90
25192;DHT22;13143;50.924;5.320;2023-01-23T06:57:18;2.90;99.90
25192;DHT22;13143;50.924;5.320;2023-01-23T06:59:43;2.90;99.90
25192;DHT22;13143;50.924;5.320;2023-01-23T07:02:12;2.90;99.90
25192;DHT22;13143;50.924;5.320;2023-01-23T07:04:38;2.90;99.90
25192;DHT22;13143;50.924;5.320;2023-01-23T07:07:04;2.90;99.90
25192;DHT22;13143;50.924;5.320;2023-01-23T07:09:29;2.90;99.90
25192;DHT22;13143;50.924;5.320;2023-01-23T07:11:55;2.90;99.90
25192;DHT22;13143;50.924;5.320;2023-01-23T07:14:21;2.90;99.90
25192;DHT22;13143;50.924;5.320;2023-01-23T07:16:47;2.90;99.90
25192;DHT22;13143;50.924;5.320;2023-01-23T07:19:12;2.90;99.90
25192;DHT22;13143;50.924;5.320;2023-01-23T07:21:38;2.90;99.90
25192;DHT22;13143;50.924;5.320;2023-01-23T07:24:04;2.90;99.90
25192;DHT22;13143;50.924;5.320;2023-01-23T07:26:30;2.90;99.90
25192;DHT22;13143;50.924;5.320;2023-01-23T07:28:55;2.90;99.90
25192;DHT22;13143;50.924;5.320;2023-01-23T07:31:22;2.90;99.90
25192;DHT22;13143;50.924;5.320;2023-01-23T07:33:48;2.90;99.90
25192;DHT22;13143;50.924;5.320;2023-01-23T07:36:14;2.90;99.90
25192;DHT22;13143;50.924;5.320;2023-01-23T07:38:39;2.90;99.90
25192;DHT22;13143;50.924;5.320;2023-01-23T07:41:05;2.90;99.90
25192;DHT22;13143;50.924;5.320;2023-01-23T07:43:31;2.90;99.90
25192;DHT22;13143;50.924;5.320;2023-01-23T07:45:58;3.00;99.90
25192;DHT22;13143;50.924;5.320;2023-01-23T07:48:24;2.90;99.90
25192;DHT22;13143;50.924;5.320;2023-01-23T07:50:50;2.90;99.90
25192;DHT22;13143;50.924;5.320;2023-01-23T07:53:15;2.90;99.90
25192;DHT22;13143;50.924;5.320;2023-01-23T07:55:41;2.90;99.90
25192;DHT22;13143;50.924;5.320;2023-01-23T07:58:07;2.90;99.90
25192;DHT22;13143;50.924;5.320;2023-01-23T08:00:33;2.90;99.90
25192;DHT22;13143;50.924;5.320;2023-01-23T08:02:58;2.90;99.90
25192;DHT22;13143;50.924;5.320;2023-01-23T08:05:24;2.90;99.90
25192;DHT22;13143;50.924;5.320;2023-01-23T08:07:50;3.00;99.90
25192;DHT22;13143;50.924;5.320;2023-01-23T08:10:16;3.00;99.90
25192;DHT22;13143;50.924;5.320;2023-01-23T08:12:42;3.00;99.90
25192;DHT22;13143;50.924;5.320;2023-01-23T08:15:08;3.00;99.90
25192;DHT22;13143;50.924;5.320;2023-01-23T08:17:34;3.00;99.90
25192;DHT22;13143;50.924;5.320;2023-01-23T08:19:59;3.00;99.90
25192;DHT22;13143;50.924;5.320;2023-01-23T08:22:25;3.00;99.90
25192;DHT22;13143;50.924;5.320;2023-01-23T08:24:51;3.00;99.90
25192;DHT22;13143;50.924;5.320;2023-01-23T08:27:16;3.00;99.90
25192;DHT22;13143;50.924;5.320;2023-01-23T08:29:42;3.00;99.90
25192;DHT22;13143;50.924;5.320;2023-01-23T08:32:10;3.00;99.90
25192;DHT22;13143;50.924;5.320;2023-01-23T08:34:36;3.10;99.90
25192;DHT22;13143;50.924;5.320;2023-01-23T08:37:02;3.00;99.90
25192;DHT22;13143;50.924;5.320;2023-01-23T08:39:27;3.00;99.90
25192;DHT22;13143;50.924;5.320;2023-01-23T08:41:53;3.10;99.90
25192;DHT22;13143;50.924;5.320;2023-01-23T08:44:19;3.10;99.90
25192;DHT22;13143;50.924;5.320;2023-01-23T08:46:45;3.10;99.90
25192;DHT22;13143;50.924;5.320;2023-01-23T08:49:11;3.00;99.90
25192;DHT22;13143;50.924;5.320;2023-01-23T08:51:36;3.10;99.90
25192;DHT22;13143;50.924;5.320;2023-01-23T08:54:02;3.00;99.90
25192;DHT22;13143;50.924;5.320;2023-01-23T08:56:28;3.10;99.90
25192;DHT22;13143;50.924;5.320;2023-01-23T08:58:54;3.10;99.90
25192;DHT22;13143;50.924;5.320;2023-01-23T09:01:22;3.10;99.90
25192;DHT22;13143;50.924;5.320;2023-01-23T09:03:47;3.10;99.90
25192;DHT22;13143;50.924;5.320;2023-01-23T09:06:15;3.10;99.90
25192;DHT22;13143;50.924;5.320;2023-01-23T09:08:42;3.10;99.90
25192;DHT22;13143;50.924;5.320;2023-01-23T09:11:08;3.10;99.90
25192;DHT22;13143;50.924;5.320;2023-01-23T09:13:35;3.10;99.90
25192;DHT22;13143;50.924;5.320;2023-01-23T09:16:01;3.10;99.90
25192;DHT22;13143;50.924;5.320;2023-01-23T09:18:27;3.10;99.90
25192;DHT22;13143;50.924;5.320;2023-01-23T09:20:53;3.10;99.90
25192;DHT22;13143;50.924;5.320;2023-01-23T09:23:19;3.10;99.90
25192;DHT22;13143;50.924;5.320;2023-01-23T09:25:45;3.10;99.90
25192;DHT22;13143;50.924;5.320;2023-01-23T09:28:11;3.20;99.90
25192;DHT22;13143;50.924;5.320;2023-01-23T09:30:38;3.20;99.90
25192;DHT22;13143;50.924;5.320;2023-01-23T09:33:03;3.20;99.90
25192;DHT22;13143;50.924;5.320;2023-01-23T09:35:29;3.20;99.90
25192;DHT22;13143;50.924;5.320;2023-01-23T09:37:55;3.20;99.90
25192;DHT22;13143;50.924;5.320;2023-01-23T09:41:07;3.20;99.90
25192;DHT22;13143;50.924;5.320;2023-01-23T09:46:42;3.20;99.90
25192;DHT22;13143;50.924;5.320;2023-01-23T09:52:02;3.30;99.90
25192;DHT22;13143;50.924;5.320;2023-01-23T09:57:14;3.20;99.90
25192;DHT22;13143;50.924;5.320;2023-01-23T09:59:48;3.20;99.90
25192;DHT22;13143;50.924;5.320;2023-01-23T10:02:21;3.20;99.90
25192;DHT22;13143;50.924;5.320;2023-01-23T10:04:48;3.30;99.90
25192;DHT22;13143;50.924;5.320;2023-01-23T10:07:22;3.30;99.90
25192;DHT22;13143;50.924;5.320;2023-01-23T10:16:16;3.30;99.90
25192;DHT22;13143;50.924;5.320;2023-01-23T10:21:52;3.30;99.90
25192;DHT22;13143;50.924;5.320;2023-01-23T10:24:45;3.30;99.90
25192;DHT22;13143;50.924;5.320;2023-01-23T10:27:22;3.30;99.90
25192;DHT22;13143;50.924;5.320;2023-01-23T10:29:59;3.30;99.90
25192;DHT22;13143;50.924;5.320;2023-01-23T10:32:28;3.30;99.90
25192;DHT22;13143;50.924;5.320;2023-01-23T10:35:33;3.30;99.90
25192;DHT22;13143;50.924;5.320;2023-01-23T10:38:00;3.30;99.90
25192;DHT22;13143;50.924;5.320;2023-01-23T10:40:26;3.30;99.90
25192;DHT22;13143;50.924;5.320;2023-01-23T10:43:20;3.30;99.90
25192;DHT22;13143;50.924;5.320;2023-01-23T10:45:47;3.30;99.90
25192;DHT22;13143;50.924;5.320;2023-01-23T10:48:40;3.30;99.90
25192;DHT22;13143;50.924;5.320;2023-01-23T10:51:25;3.40;99.90
25192;DHT22;13143;50.924;5.320;2023-01-23T10:56:57;3.40;99.90
25192;DHT22;13143;50.924;5.320;2023-01-23T11:02:18;3.40;99.90
25192;DHT22;13143;50.924;5.320;2023-01-23T11:04:46;3.40;99.90
25192;DHT22;13143;50.924;5.320;2023-01-23T11:07:16;3.40;99.90
25192;DHT22;13143;50.924;5.320;2023-01-23T11:12:25;3.40;99.90
25192;DHT22;13143;50.924;5.320;2023-01-23T11:18:00;3.50;99.90
25192;DHT22;13143;50.924;5.320;2023-01-23T11:20:29;3.50;99.90
25192;DHT22;13143;50.924;5.320;2023-01-23T11:23:03;3.50;99.90
25192;DHT22;13143;50.924;5.320;2023-01-23T11:25:36;3.50;99.90
25192;DHT22;13143;50.924;5.320;2023-01-23T11:28:20;3.50;99.90
25192;DHT22;13143;50.924;5.320;2023-01-23T11:31:13;3.50;99.90
25192;DHT22;13143;50.924;5.320;2023-01-23T11:38:52;3.60;99.90
25192;DHT22;13143;50.924;5.320;2023-01-23T11:41:20;3.60;99.90
25192;DHT22;13143;50.924;5.320;2023-01-23T11:43:49;3.60;99.90
25192;DHT22;13143;50.924;5.320;2023-01-23T11:46:24;3.60;99.90
25192;DHT22;13143;50.924;5.320;2023-01-23T11:54:27;3.60;99.90
25192;DHT22;13143;50.924;5.320;2023-01-23T11:57:08;3.60;99.90
25192;DHT22;13143;50.924;5.320;2023-01-23T12:02:08;3.70;99.90
25192;DHT22;13143;50.924;5.320;2023-01-23T12:05:00;3.70;99.90
25192;DHT22;13143;50.924;5.320;2023-01-23T12:10:52;3.70;99.90
25192;DHT22;13143;50.924;5.320;2023-01-23T12:18:39;3.70;99.90
25192;DHT22;13143;50.924;5.320;2023-01-23T12:21:17;3.70;99.90
25192;DHT22;13143;50.924;5.320;2023-01-23T12:29:10;3.70;99.90
25192;DHT22;13143;50.924;5.320;2023-01-23T12:32:14;3.70;99.90
25192;DHT22;13143;50.924;5.320;2023-01-23T12:40:39;3.80;99.90
25192;DHT22;13143;50.924;5.320;2023-01-23T12:43:10;3.80;99.90
25192;DHT22;13143;50.924;5.320;2023-01-23T12:45:43;3.80;99.90
25192;DHT22;13143;50.924;5.320;2023-01-23T12:50:51;3.80;99.90
25192;DHT22;13143;50.924;5.320;2023-01-23T12:53:21;3.80;99.90
25192;DHT22;13143;50.924;5.320;2023-01-23T12:58:35;3.80;99.90
25192;DHT22;13143;50.924;5.320;2023-01-23T13:01:31;3.90;99.90
25192;DHT22;13143;50.924;5.320;2023-01-23T13:04:11;3.90;99.90
25192;DHT22;13143;50.924;5.320;2023-01-23T13:10:12;3.90;99.90
25192;DHT22;13143;50.924;5.320;2023-01-23T13:12:41;3.90;99.90
25192;DHT22;13143;50.924;5.320;2023-01-23T13:18:02;3.90;99.90
25192;DHT22;13143;50.924;5.320;2023-01-23T13:20:32;3.90;99.90
25192;DHT22;13143;50.924;5.320;2023-01-23T13:23:33;4.00;99.90
25192;DHT22;13143;50.924;5.320;2023-01-23T13:28:47;4.00;99.90
25192;DHT22;13143;50.924;5.320;2023-01-23T13:33:49;4.00;99.90
25192;DHT22;13143;50.924;5.320;2023-01-23T13:36:27;4.00;99.90
25192;DHT22;13143;50.924;5.320;2023-01-23T13:39:25;4.00;99.90
25192;DHT22;13143;50.924;5.320;2023-01-23T13:41:50;4.00;99.90
25192;DHT22;13143;50.924;5.320;2023-01-23T13:44:25;4.10;99.90
25192;DHT22;13143;50.924;5.320;2023-01-23T13:47:03;4.10;99.90
25192;DHT22;13143;50.924;5.320;2023-01-23T13:50:25;4.10;99.90
25192;DHT22;13143;50.924;5.320;2023-01-23T13:52:56;4.10;99.90
25192;DHT22;13143;50.924;5.320;2023-01-23T13:55:44;4.10;99.90
25192;DHT22;13143;50.924;5.320;2023-01-23T13:58:30;4.10;99.90
25192;DHT22;13143;50.924;5.320;2023-01-23T14:01:12;4.10;99.90
25192;DHT22;13143;50.924;5.320;2023-01-23T14:04:06;4.10;99.90
25192;DHT22;13143;50.924;5.320;2023-01-23T14:06:53;4.10;99.90
25192;DHT22;13143;50.924;5.320;2023-01-23T14:09:20;4.10;99.90
25192;DHT22;13143;50.924;5.320;2023-01-23T14:11:46;4.10;99.90
25192;DHT22;13143;50.924;5.320;2023-01-23T14:14:14;4.10;99.90
25192;DHT22;13143;50.924;5.320;2023-01-23T14:16:58;4.10;99.90
25192;DHT22;13143;50.924;5.320;2023-01-23T14:19:24;4.10;99.90
25192;DHT22;13143;50.924;5.320;2023-01-23T14:22:04;4.10;99.90
25192;DHT22;13143;50.924;5.320;2023-01-23T14:27:18;4.10;99.90
25192;DHT22;13143;50.924;5.320;2023-01-23T14:29:58;4.10;99.90
25192;DHT22;13143;50.924;5.320;2023-01-23T14:32:25;4.10;99.90
25192;DHT22;13143;50.924;5.320;2023-01-23T14:34:52;4.20;99.90
25192;DHT22;13143;50.924;5.320;2023-01-23T14:37:18;4.10;99.90
25192;DHT22;13143;50.924;5.320;2023-01-23T14:39:45;4.20;99.90
25192;DHT22;13143;50.924;5.320;2023-01-23T14:42:25;4.20;99.90
25192;DHT22;13143;50.924;5.320;2023-01-23T14:44:51;4.20;99.90
25192;DHT22;13143;50.924;5.320;2023-01-23T14:47:36;4.10;99.90
25192;DHT22;13143;50.924;5.320;2023-01-23T14:50:03;4.10;99.90
25192;DHT22;13143;50.924;5.320;2023-01-23T14:52:32;4.20;99.90
25192;DHT22;13143;50.924;5.320;2023-01-23T14:54:58;4.20;99.90
25192;DHT22;13143;50.924;5.320;2023-01-23T14:57:25;4.20;99.90
25192;DHT22;13143;50.924;5.320;2023-01-23T14:59:56;4.20;99.90
25192;DHT22;13143;50.924;5.320;2023-01-23T15:02:34;4.20;99.90
25192;DHT22;13143;50.924;5.320;2023-01-23T15:05:24;4.20;99.90
25192;DHT22;13143;50.924;5.320;2023-01-23T15:08:05;4.20;99.90
25192;DHT22;13143;50.924;5.320;2023-01-23T15:13:15;4.20;99.90
25192;DHT22;13143;50.924;5.320;2023-01-23T15:15:52;4.10;99.90
25192;DHT22;13143;50.924;5.320;2023-01-23T15:18:27;4.10;99.90
25192;DHT22;13143;50.924;5.320;2023-01-23T15:20:54;4.20;99.90
25192;DHT22;13143;50.924;5.320;2023-01-23T15:23:24;4.20;99.90
25192;DHT22;13143;50.924;5.320;2023-01-23T15:28:55;4.10;99.90
25192;DHT22;13143;50.924;5.320;2023-01-23T15:31:30;4.10;99.90
25192;DHT22;13143;50.924;5.320;2023-01-23T15:36:38;4.20;99.90
25192;DHT22;13143;50.924;5.320;2023-01-23T15:39:16;4.20;99.90
25192;DHT22;13143;50.924;5.320;2023-01-23T15:41:47;4.20;99.90
25192;DHT22;13143;50.924;5.320;2023-01-23T15:44:14;4.10;99.90
25192;DHT22;13143;50.924;5.320;2023-01-23T15:46:41;4.20;99.90
25192;DHT22;13143;50.924;5.320;2023-01-23T15:49:06;4.20;99.90
25192;DHT22;13143;50.924;5.320;2023-01-23T15:51:33;4.10;99.90
25192;DHT22;13143;50.924;5.320;2023-01-23T15:53:58;4.10;99.90
25192;DHT22;13143;50.924;5.320;2023-01-23T15:56:30;4.10;99.90
25192;DHT22;13143;50.924;5.320;2023-01-23T15:58:56;4.10;99.90
25192;DHT22;13143;50.924;5.320;2023-01-23T16:01:23;4.10;99.90
25192;DHT22;13143;50.924;5.320;2023-01-23T16:03:49;4.10;99.90
25192;DHT22;13143;50.924;5.320;2023-01-23T16:06:18;4.10;99.90
25192;DHT22;13143;50.924;5.320;2023-01-23T16:08:48;4.10;99.90
25192;DHT22;13143;50.924;5.320;2023-01-23T16:11:15;4.10;99.90
25192;DHT22;13143;50.924;5.320;2023-01-23T16:13:40;4.10;99.90
25192;DHT22;13143;50.924;5.320;2023-01-23T16:16:15;4.10;99.90
25192;DHT22;13143;50.924;5.320;2023-01-23T16:18:41;4.10;99.90
25192;DHT22;13143;50.924;5.320;2023-01-23T16:21:15;4.10;99.90
25192;DHT22;13143;50.924;5.320;2023-01-23T16:23:41;4.10;99.90
25192;DHT22;13143;50.924;5.320;2023-01-23T16:26:19;4.10;99.90
25192;DHT22;13143;50.924;5.320;2023-01-23T16:28:45;4.10;99.90
25192;DHT22;13143;50.924;5.320;2023-01-23T16:31:12;4.10;99.90
25192;DHT22;13143;50.924;5.320;2023-01-23T16:33:41;4.20;99.90
25192;DHT22;13143;50.924;5.320;2023-01-23T16:36:14;4.20;99.90
25192;DHT22;13143;50.924;5.320;2023-01-23T16:38:49;4.20;99.90
25192;DHT22;13143;50.924;5.320;2023-01-23T16:41:15;4.10;99.90
25192;DHT22;13143;50.924;5.320;2023-01-23T16:43:43;4.10;99.90
25192;DHT22;13143;50.924;5.320;2023-01-23T16:46:10;4.10;99.90
25192;DHT22;13143;50.924;5.320;2023-01-23T16:48:35;4.10;99.90
25192;DHT22;13143;50.924;5.320;2023-01-23T16:51:13;4.10;99.90
25192;DHT22;13143;50.924;5.320;2023-01-23T16:53:43;4.10;99.90
25192;DHT22;13143;50.924;5.320;2023-01-23T16:56:21;4.10;99.90
25192;DHT22;13143;50.924;5.320;2023-01-23T16:58:48;4.10;99.90
25192;DHT22;13143;50.924;5.320;2023-01-23T17:01:17;4.10;99.90
25192;DHT22;13143;50.924;5.320;2023-01-23T17:03:55;4.10;99.90
25192;DHT22;13143;50.924;5.320;2023-01-23T17:06:22;4.10;99.90
25192;DHT22;13143;50.924;5.320;2023-01-23T17:08:47;4.10;99.90
25192;DHT22;13143;50.924;5.320;2023-01-23T17:11:31;4.10;99.90
25192;DHT22;13143;50.924;5.320;2023-01-23T17:14:01;4.10;99.90
25192;DHT22;13143;50.924;5.320;2023-01-23T17:16:29;4.10;99.90
25192;DHT22;13143;50.924;5.320;2023-01-23T17:18:58;4.10;99.90
25192;DHT22;13143;50.924;5.320;2023-01-23T17:21:29;4.10;99.90
25192;DHT22;13143;50.924;5.320;2023-01-23T17:23:56;4.10;99.90
25192;DHT22;13143;50.924;5.320;2023-01-23T17:26:21;4.10;99.90
25192;DHT22;13143;50.924;5.320;2023-01-23T17:28:47;4.10;99.90
25192;DHT22;13143;50.924;5.320;2023-01-23T17:31:20;4.10;99.90
25192;DHT22;13143;50.924;5.320;2023-01-23T17:33:47;4.10;99.90
25192;DHT22;13143;50.924;5.320;2023-01-23T17:36:13;4.10;99.90